F/V Argentario — FGPE — position and weather

sailwx.info

Track history (hours):
 
Tides and Currents Weather Stations Pressure Air Temp Water Temp Dewpoint Dewpoint Depression Visibility Wind Speed Wind Dir Waves Ship Positions

F/V Argentario

Last reported at 2016-Dec-02 14:32 UTC. Time now 2016-Dec-04 14:14 UTC.
Position N 46°44' W 002°21'.

Length 22 m; draft 3.4 m.

Type: Fishing. MMSI: 228975000.

Date/timePositionNaut miles runAvg speedWind from/ knotsBaromVisibWave heightAir tempDewpointWater temp
2016-Dec-02 14:32N 46°44' W 002°21'1 1.1
2016-Dec-02 13:31N 46°44' W 002°22'8 8.5
2016-Dec-02 12:33N 46°39' W 002°30'9 9.2
2016-Dec-02 11:34N 46°30' W 002°36'9 9.0
2016-Dec-02 10:33N 46°22' W 002°42'10 2.4
2016-Dec-02 06:25N 46°14' W 002°50'39 0.9
2016-Nov-30 10:33N 45°36' W 002°38'2 1.7
2016-Nov-30 09:34N 45°36' W 002°41'2 1.9
2016-Nov-30 08:32N 45°36' W 002°38'49 1.6
2016-Nov-29 01:33N 46°18' W 002°02'6 6.4
2016-Nov-29 00:34N 46°22' W 001°56'7 6.6
2016-Nov-28 23:33N 46°27' W 001°49'3 2.9
2016-Nov-28 22:34N 46°30' W 001°47'0 0.0
2016-Nov-28 21:33N 46°30' W 001°47'0 0.0
2016-Nov-28 20:33N 46°30' W 001°47'0 0.0
2016-Nov-28 19:34N 46°30' W 001°47'0 0.2
2016-Nov-28 18:34N 46°30' W 001°48'9 8.8
2016-Nov-28 17:33N 46°22' W 001°55'  
Track history (hours):
 
Tides and Currents Weather Stations Pressure Air Temp Water Temp Dewpoint Dewpoint Depression Visibility Wind Speed Wind Dir Waves Ship Positions

F/V Argentario

Last reported at 2016-Dec-02 14:32 UTC. Time now 2016-Dec-04 14:14 UTC.
Position N 46°44' W 002°21'.

Length 22 m; draft 3.4 m.

Type: Fishing. MMSI: 228975000.

Date/timePositionNaut miles runAvg speedWind from/ knotsBaromVisibWave heightAir tempDewpointWater temp
2016-Dec-02 14:32N 46°44' W 002°21'1 1.1
2016-Dec-02 13:31N 46°44' W 002°22'8 8.5
2016-Dec-02 12:33N 46°39' W 002°30'9 9.2
2016-Dec-02 11:34N 46°30' W 002°36'9 9.0
2016-Dec-02 10:33N 46°22' W 002°42'10 2.4
2016-Dec-02 06:25N 46°14' W 002°50'39 0.9
2016-Nov-30 10:33N 45°36' W 002°38'2 1.7
2016-Nov-30 09:34N 45°36' W 002°41'2 1.9
2016-Nov-30 08:32N 45°36' W 002°38'49 1.6
2016-Nov-29 01:33N 46°18' W 002°02'6 6.4
2016-Nov-29 00:34N 46°22' W 001°56'7 6.6
2016-Nov-28 23:33N 46°27' W 001°49'3 2.9
2016-Nov-28 22:34N 46°30' W 001°47'0 0.0
2016-Nov-28 21:33N 46°30' W 001°47'0 0.0
2016-Nov-28 20:33N 46°30' W 001°47'0 0.0
2016-Nov-28 19:34N 46°30' W 001°47'0 0.2
2016-Nov-28 18:34N 46°30' W 001°48'9 8.8
2016-Nov-28 17:33N 46°22' W 001°55'  

Dump ship's entire track history